This is the latest recevied weather packets stored in our database for station/object W7OG-10. If no packets are shown the sender has not sent any weather packets the latest 10 day(s).
| Time | Temp. | Humidity | Pressure | Rain* | Wind** | Luminosity | Snow |
|---|---|---|---|---|---|---|---|
| 1777707506 | 23.89° C | 100% | 1016.1 hPa | 0 mm | - | - | - |
| 1777702106 | 23.89° C | 100% | 1015.4 hPa | 0 mm | - | - | - |
| 1777701506 | 24.44° C | 99% | 1015.4 hPa | 0 mm | - | - | - |
| 1777700906 | 24.44° C | 99% | 1015.4 hPa | 0 mm | - | - | - |
| 1777698507 | 24.44° C | 98% | 1015.2 hPa | 0 mm | - | - | - |
| 1777694927 | 24.44° C | 96% | 1014.4 hPa | 0 mm | - | - | - |
| 1777685909 | 25° C | 97% | 1013.5 hPa | 0 mm | - | - | - |
| 1777685308 | 25.56° C | 97% | 1013.6 hPa | 0 mm | - | - | - |
| 1777684708 | 25.56° C | 97% | 1013.6 hPa | 0 mm | - | - | - |
| 1777684128 | 25.56° C | 96% | 1013.5 hPa | 0 mm | - | - | - |
| 1777682309 | 26.11° C | 95% | 1013.6 hPa | 0 mm | - | - | - |
| 1777671509 | 26.67° C | 93% | 1015.2 hPa | 0 mm | - | - | - |
| 1777670309 | 26.67° C | 92% | 1015.3 hPa | 0 mm | - | - | - |
| 1777666129 | 26.67° C | 95% | 1015.7 hPa | 0 mm | - | - | - |
| 1777661930 | 25.56° C | 97% | 1016.4 hPa | 0 mm | - | - | - |
| 1777661310 | 25.56° C | 97% | 1016.5 hPa | 0 mm | - | - | - |
| 1777660110 | 25.56° C | 97% | 1016.8 hPa | 0 mm | - | - | - |
| 1777651711 | 23.33° C | 100% | 1017.6 hPa | 0 mm | - | - | - |
| 1777649312 | 22.78° C | 100% | 1017.6 hPa | 0 mm | - | - | - |
| 1777648714 | 22.78° C | 100% | 1017.5 hPa | 0 mm | - | - | - |
| 1777645711 | 22.78° C | 100% | 1017.4 hPa | 0 mm | - | - | - |
| 1777644531 | 22.78° C | 100% | 1017.2 hPa | 0 mm | - | - | - |
| 1777643310 | 22.78° C | 100% | 1017.1 hPa | 0 mm | - | - | - |
| 1777640911 | 22.78° C | 100% | 1016.6 hPa | 0 mm | - | - | - |
| 1777639711 | 22.78° C | 100% | 1016.5 hPa | 0 mm | - | - | - |
* Rain latest hour (hover to see other rain measurements)
** Current wind speed in m/s (hover to see current wind gust speed)